Terminal Aerodrome Forecast
Issued by NWS Boston, MA

Home | Current Version | Previous Version | Text Only | Print | Product List | Glossary On
Versions: 1 2 3 4 5 6 7 8 9 10 11 12 13 14 15 16 17 18 19 20 21 22 23 24 25 26 27 28 29 30 31 32 33 34 35 36 37 38 39 40 41 42 43 44 45 46 47 48 49 50
000
FTUS41 KBOX 152023 AAA
TAFBOS
TAF AMD
KBOS 152023Z 1520/1624 22015G26KT P6SM FEW120 BKN250
     FM160500 22011KT P6SM VCSH OVC080
     FM161600 20007KT 6SM -SHRA OVC020
     FM161900 18007KT 3SM -SHRA OVC018
     FM162100 19008KT 2SM -SHRA BR OVC012
     FM162200 20007KT 3SM -SHRA OVC010=

USA.gov is the U.S. government's official web portal to all federal, state and local government web resources and services.